Aeroporto :
LOGIN :

Iscrizione | Disclaimer

   EN    FR    IT 

 










Sommario :    VFR   VFR Marginale   IFR   IFR Intensivo   IFR Molto Intensivo
Visibilità : 
Base nubi : 
>= 8 km
>= 3000ft
5 / 8 km
1000 / 3000 ft
1500m / 5 km
500 / 1000 ft
800 / 1500m
200 / 500 ft
< 800m
< 200 ft
Simboli :   Temporali  Nebbia  Neve Forte  Precipitazioni Forti  Vento > 20 kt
SIGMETs :   Varie  Temporali  Ghiacco  Turbolenza  Onda orograficha  Ceneri Vulcaniche






- Altitudine del aeroporto : 776 ft
- Codice IATA : RMS


ETAR - Ramstein Air Base

ULTIMO METAR :
  • 261455Z AUTO 18005KT 9999 FEW055 17/14 A3002 RMK AO2 RAE43 SLP171 P0002 60002 T01740143 51007 $

METARs OBSOLETI :
  • 261443Z COR AUTO 20005KT 9999 FEW009 OVC060 17/14 A3002 RMK AO2 RAE43 SLP170 $ COR 1448
  • 261355Z AUTO 23009G16KT 9999 -RA SCT030 20/11 A3002 RMK AO2 RAB32E42RAB44 SLP169 P0000 T01960108 $
  • 261344Z AUTO 22005KT 9999 -RA CLR 21/11 A3001 RMK AO2 RAB32E42RAB44 SLP166 $
  • 261255Z AUTO 21006KT 9999 SCT095 SCT110 22/09 A3001 RMK AO2 SLP166 T02180090 $
  • 261155Z AUTO 20006KT 9999 FEW170 FEW190 23/09 A3000 RMK AO2 SLP162 T02340094 10234 20118 58003 $
  • 261055Z AUTO 21007KT 9999 FEW150 SCT190 23/09 A3001 RMK AO2 SLP165 T02280092 $
  • 260955Z AUTO 17007KT 9999 FEW200 22/10 A3001 RMK AO2 SLP165 T02210102

TAF AMD TAF ETAR
Valido dal 26 a 12 ore il 27 a 16 ore UTC


261257Z 2612/2716 18010G15KT 9999 BKN160 QNH3000INS
TEMPO 2614/2618 18010G20KT 9000 -SHRA
BECMG 2617/2618 20009KT 9999 BKN150 QNH3001INS
BECMG 2620/2621 21009KT 9999 SCT060 BKN150 QNH3004INS
BECMG 2701/2702 VRB06KT 6000 BR BKN015 QNH3007INS
BECMG 2708/2709 24010G15KT 9999 NSW SCT030 SCT180 QNH3001INS
BECMG 2715/2716 25009KT 9999 SCT050 BKN150 QNH3000INS TX23/2613Z TN12/2701Z



MetMap, La meteo Aeronautica in un colpo d'occhio ! - Copyright ORBIFLY Dicembre 2007 - Disclaimer

ORBIFLY MET'MAP TEAM :

Programmazione e sviluppo : Alexandra Zaïnal
Concezione : Baudouin d'Aumeries
Supporto tecnico e logistico : Manuel Goepfert
Aiuto : Marc-Olivier Méhu
Aiuto per la traduzione : Arnaldo La Scala




FONTI E CREDITI :

   NOAA